createdAt,value
2023-03-23T00:03:52.896Z,13.91
2023-03-23T00:06:22.133Z,13.96
2023-03-23T00:08:51.793Z,13.94
2023-03-23T00:14:03.854Z,13.88
2023-03-23T00:16:33.440Z,13.93
2023-03-23T00:19:04.080Z,13.97
2023-03-23T00:21:34.563Z,13.97
2023-03-23T00:24:08.210Z,13.96
2023-03-23T00:26:48.061Z,13.99
2023-03-23T00:29:22.358Z,14.06
2023-03-23T00:31:50.181Z,14.09
2023-03-23T00:34:20.712Z,14.12
2023-03-23T00:36:49.767Z,14.19
2023-03-23T00:39:17.569Z,14.14
2023-03-23T00:41:45.959Z,14.18
2023-03-23T00:44:18.003Z,14.24
2023-03-23T00:46:50.771Z,14.24
2023-03-23T00:49:20.539Z,14.26
2023-03-23T00:51:47.496Z,14.28
2023-03-23T00:54:14.241Z,14.27
2023-03-23T00:56:41.211Z,14.26
2023-03-23T00:59:08.001Z,14.27
2023-03-23T01:01:36.155Z,14.25
2023-03-23T01:04:05.284Z,14.22
2023-03-23T01:06:36.284Z,14.25
2023-03-23T01:09:04.479Z,14.24
2023-03-23T01:11:31.140Z,14.23
2023-03-23T01:13:57.787Z,14.12
2023-03-23T01:16:24.827Z,14.15
2023-03-23T01:18:51.523Z,14.11
2023-03-23T01:21:20.434Z,14.14
2023-03-23T01:23:47.916Z,14.15
2023-03-23T01:26:17.630Z,14.12
2023-03-23T01:28:44.918Z,14.17
2023-03-23T01:31:17.108Z,14.15
2023-03-23T01:33:44.151Z,14.21
2023-03-23T01:36:16.180Z,14.17
2023-03-23T01:38:45.515Z,14.09
2023-03-23T01:41:13.439Z,14.01
2023-03-23T01:46:33.683Z,14.09
2023-03-23T01:49:09.939Z,14.10
2023-03-23T01:51:42.132Z,14.13
2023-03-23T01:54:11.839Z,14.10
2023-03-23T01:56:46.423Z,14.12
2023-03-23T01:59:14.606Z,14.07
2023-03-23T02:01:46.070Z,14.09
2023-03-23T02:04:15.979Z,14.08
2023-03-23T02:06:43.742Z,14.05
2023-03-23T02:09:10.761Z,14.11
2023-03-23T02:11:37.528Z,14.04
2023-03-23T02:14:04.354Z,14.11
2023-03-23T02:16:53.152Z,14.11
2023-03-23T02:20:08.173Z,14.09
2023-03-23T02:22:57.112Z,14.10
2023-03-23T02:26:01.423Z,14.11
2023-03-23T02:28:40.404Z,14.11
2023-03-23T02:31:18.042Z,14.10
2023-03-23T02:34:16.883Z,14.14
2023-03-23T02:39:30.958Z,14.07
2023-03-23T02:42:05.801Z,14.11
2023-03-23T02:44:44.349Z,14.15
2023-03-23T02:47:25.197Z,14.10
2023-03-23T02:49:55.867Z,14.18
2023-03-23T02:52:26.633Z,14.19
2023-03-23T02:54:55.937Z,14.13
2023-03-23T02:57:40.438Z,14.14
2023-03-23T03:00:12.281Z,14.20
2023-03-23T03:02:43.350Z,14.20
2023-03-23T03:05:37.362Z,14.20
2023-03-23T03:08:20.288Z,14.23
2023-03-23T03:10:56.746Z,14.23
2023-03-23T03:13:36.172Z,14.19
2023-03-23T03:16:11.677Z,14.19
2023-03-23T03:18:52.344Z,14.17
2023-03-23T03:21:26.550Z,14.14
2023-03-23T03:23:55.554Z,14.18
2023-03-23T03:26:27.752Z,14.19
2023-03-23T03:28:56.618Z,14.20
2023-03-23T03:31:29.277Z,14.25
2023-03-23T03:33:57.306Z,14.27
2023-03-23T03:39:16.134Z,14.28
2023-03-23T03:41:43.320Z,14.16
2023-03-23T03:44:11.036Z,14.24
2023-03-23T03:46:38.384Z,14.20
2023-03-23T03:49:07.993Z,14.23
2023-03-23T03:51:36.706Z,14.27
2023-03-23T03:54:04.006Z,14.31
2023-03-23T03:56:32.685Z,14.21
2023-03-23T03:59:00.744Z,14.28
2023-03-23T04:01:47.311Z,14.32
2023-03-23T04:04:13.894Z,14.35
2023-03-23T04:06:40.501Z,14.42
2023-03-23T04:09:09.075Z,14.41
2023-03-23T04:11:35.890Z,14.33
2023-03-23T04:14:03.689Z,14.39
2023-03-23T04:16:30.775Z,14.42
2023-03-23T04:18:58.010Z,14.40
2023-03-23T04:21:24.767Z,14.46
2023-03-23T04:23:51.546Z,14.49
2023-03-23T04:26:18.401Z,14.53
2023-03-23T04:28:45.122Z,14.55
2023-03-23T04:31:13.913Z,14.48
2023-03-23T04:33:59.652Z,14.43
2023-03-23T04:36:27.163Z,14.43
2023-03-23T04:39:14.522Z,14.45
2023-03-23T04:41:41.473Z,14.50
2023-03-23T04:44:08.668Z,14.44
2023-03-23T04:46:35.486Z,14.45
2023-03-23T04:49:03.148Z,14.50
2023-03-23T04:51:32.414Z,14.49
2023-03-23T04:53:59.140Z,14.55
2023-03-23T04:56:25.745Z,14.52
2023-03-23T04:58:52.695Z,14.56
2023-03-23T05:01:19.304Z,14.54
2023-03-23T05:03:46.167Z,14.51
2023-03-23T05:06:12.779Z,14.56
2023-03-23T05:08:42.334Z,14.49
2023-03-23T05:11:09.776Z,14.46
2023-03-23T05:13:36.392Z,14.47
2023-03-23T05:16:06.626Z,14.43
2023-03-23T05:18:33.897Z,14.47
2023-03-23T05:21:02.103Z,14.49
2023-03-23T05:23:28.934Z,14.50
2023-03-23T05:25:57.428Z,14.56
2023-03-23T05:28:24.178Z,14.55
2023-03-23T05:30:50.864Z,14.50
2023-03-23T05:33:17.520Z,14.55
2023-03-23T05:35:44.558Z,14.51
2023-03-23T05:38:11.267Z,14.57
2023-03-23T05:40:38.825Z,14.51
2023-03-23T05:43:05.513Z,14.57
2023-03-23T05:45:32.091Z,14.57
2023-03-23T05:47:58.743Z,14.54
2023-03-23T05:50:25.566Z,14.55
2023-03-23T05:52:52.514Z,14.57
2023-03-23T05:57:56.440Z,14.61
2023-03-23T06:00:24.621Z,14.61
2023-03-23T06:02:52.104Z,14.58
2023-03-23T06:05:18.792Z,14.56
2023-03-23T06:07:45.513Z,14.61
2023-03-23T06:10:12.249Z,14.61
2023-03-23T06:12:40.915Z,14.59
2023-03-23T06:15:08.966Z,14.60
2023-03-23T06:17:37.445Z,14.67
2023-03-23T06:20:10.415Z,14.71
2023-03-23T06:22:41.118Z,14.70
2023-03-23T06:25:09.014Z,14.67
2023-03-23T06:27:36.669Z,14.66
2023-03-23T06:30:05.748Z,14.74
2023-03-23T06:32:33.860Z,14.74
2023-03-23T06:35:00.530Z,14.69
2023-03-23T06:37:27.286Z,14.70
2023-03-23T06:44:59.508Z,14.56
2023-03-23T06:47:26.176Z,14.47
2023-03-23T06:49:52.915Z,14.40
2023-03-23T06:52:19.817Z,14.47
2023-03-23T06:54:46.463Z,14.50
2023-03-23T06:57:13.091Z,14.58
2023-03-23T06:59:39.691Z,14.58
2023-03-23T07:02:07.814Z,14.70
2023-03-23T07:04:34.442Z,14.78
2023-03-23T07:07:01.147Z,14.93
2023-03-23T07:09:41.113Z,14.97
2023-03-23T07:12:10.897Z,15.10
2023-03-23T07:14:37.691Z,15.16
2023-03-23T07:17:05.240Z,15.18
2023-03-23T07:19:32.113Z,15.15
2023-03-23T07:21:58.734Z,15.11
2023-03-23T07:24:25.506Z,15.09
2023-03-23T07:26:52.262Z,15.07
2023-03-23T07:29:18.922Z,15.02
2023-03-23T07:31:45.696Z,15.00
2023-03-23T07:34:12.604Z,14.92
2023-03-23T07:36:39.252Z,14.89
2023-03-23T07:39:08.871Z,14.86
2023-03-23T07:41:35.889Z,14.90
2023-03-23T07:44:02.706Z,14.88
2023-03-23T07:46:29.463Z,14.88
2023-03-23T07:48:56.182Z,14.94
2023-03-23T07:54:06.329Z,14.94
2023-03-23T07:56:33.480Z,15.05
2023-03-23T07:59:00.299Z,15.12
2023-03-23T08:01:27.009Z,15.21
2023-03-23T08:03:55.658Z,15.30
2023-03-23T08:06:25.068Z,15.39
2023-03-23T08:08:52.650Z,15.51
2023-03-23T08:11:20.981Z,15.57
2023-03-23T08:13:48.321Z,15.62
2023-03-23T08:16:14.944Z,15.65
2023-03-23T08:18:41.742Z,15.65
2023-03-23T08:21:10.390Z,15.68
2023-03-23T08:23:37.956Z,15.78
2023-03-23T08:26:07.487Z,15.85
2023-03-23T08:28:36.057Z,15.83
2023-03-23T08:31:11.556Z,15.85
2023-03-23T08:33:39.086Z,15.85
2023-03-23T08:36:06.577Z,15.92
2023-03-23T08:38:33.446Z,15.95
2023-03-23T08:41:02.355Z,15.91
2023-03-23T08:43:29.660Z,15.94
2023-03-23T08:45:56.329Z,16.00
2023-03-23T08:48:24.218Z,15.98
2023-03-23T08:53:33.444Z,16.00
2023-03-23T08:56:11.908Z,15.95
2023-03-23T08:58:40.170Z,15.88
2023-03-23T09:01:08.429Z,15.84
2023-03-23T09:03:36.054Z,15.82
2023-03-23T09:06:05.253Z,15.79
2023-03-23T09:08:32.902Z,15.73
2023-03-23T09:11:04.297Z,15.78
2023-03-23T09:13:31.100Z,15.82
2023-03-23T09:15:59.005Z,15.81
2023-03-23T09:18:26.738Z,15.85
2023-03-23T09:20:54.838Z,15.77
2023-03-23T09:23:21.922Z,15.78
2023-03-23T09:25:49.381Z,15.88
2023-03-23T09:28:16.112Z,15.87
2023-03-23T09:30:53.058Z,16.03
2023-03-23T09:33:20.163Z,16.04
2023-03-23T09:35:46.791Z,16.09
2023-03-23T09:38:13.719Z,16.16
2023-03-23T09:40:55.267Z,16.12
2023-03-23T09:43:30.585Z,16.14
2023-03-23T09:46:19.480Z,16.08
2023-03-23T09:48:53.061Z,16.12
2023-03-23T09:51:46.381Z,16.15
2023-03-23T09:54:22.607Z,16.20
2023-03-23T09:56:50.831Z,16.25
2023-03-23T09:59:17.465Z,16.25
2023-03-23T10:04:39.496Z,16.23
2023-03-23T10:07:15.542Z,16.23
2023-03-23T10:09:44.354Z,16.25
2023-03-23T10:12:37.968Z,16.33
2023-03-23T10:15:17.393Z,16.40
2023-03-23T10:17:50.330Z,16.40
2023-03-23T10:20:33.022Z,16.32
2023-03-23T10:23:20.852Z,16.32
2023-03-23T10:26:01.769Z,16.32
2023-03-23T10:31:21.650Z,16.54
2023-03-23T10:33:56.376Z,16.61
2023-03-23T10:36:23.100Z,16.73
2023-03-23T10:39:05.086Z,16.93
2023-03-23T10:41:32.527Z,17.03
2023-03-23T10:43:59.342Z,17.15
2023-03-23T10:46:49.311Z,17.15
2023-03-23T10:52:27.576Z,16.92
2023-03-23T10:55:18.819Z,16.65
2023-03-23T10:57:48.381Z,16.60
2023-03-23T11:00:22.648Z,17.22
2023-03-23T11:03:15.955Z,17.28
2023-03-23T11:05:49.495Z,17.04
2023-03-23T11:08:25.327Z,16.85
2023-03-23T11:11:11.124Z,16.87
2023-03-23T11:13:46.515Z,16.96
2023-03-23T11:19:15.930Z,16.90
2023-03-23T11:21:49.152Z,16.81
2023-03-23T11:24:16.327Z,16.89
2023-03-23T11:26:53.577Z,16.86
2023-03-23T11:29:28.512Z,16.99
2023-03-23T11:32:08.925Z,16.83
2023-03-23T11:34:42.922Z,17.20
2023-03-23T11:37:53.593Z,16.86
2023-03-23T11:40:32.613Z,17.05
2023-03-23T11:43:02.671Z,16.99
2023-03-23T11:45:39.101Z,17.01
2023-03-23T11:48:08.411Z,17.08
2023-03-23T11:50:50.890Z,17.20
2023-03-23T11:53:40.050Z,17.12
2023-03-23T11:56:16.149Z,17.03
2023-03-23T11:58:42.857Z,16.94
2023-03-23T12:01:26.394Z,16.93
2023-03-23T12:04:11.029Z,16.88
2023-03-23T12:06:52.905Z,16.93
2023-03-23T12:09:37.914Z,16.96
2023-03-23T12:12:33.951Z,17.05
2023-03-23T12:15:18.571Z,17.14
2023-03-23T12:18:07.938Z,17.14
2023-03-23T12:21:05.019Z,17.13
2023-03-23T12:24:01.269Z,17.15
2023-03-23T12:26:33.021Z,17.12
2023-03-23T12:29:08.492Z,17.10
2023-03-23T12:31:54.083Z,16.96
2023-03-23T12:34:35.699Z,16.89
2023-03-23T12:37:12.031Z,16.82
2023-03-23T12:39:51.916Z,16.77
2023-03-23T12:42:24.643Z,16.61
2023-03-23T12:45:04.179Z,16.49
2023-03-23T12:47:46.535Z,16.32
2023-03-23T12:50:36.157Z,16.41
2023-03-23T12:53:12.793Z,16.42
2023-03-23T12:55:50.620Z,16.48
2023-03-23T13:01:08.246Z,16.42
2023-03-23T13:03:44.031Z,16.36
2023-03-23T13:06:19.839Z,16.38
2023-03-23T13:09:25.239Z,16.39
2023-03-23T13:11:54.397Z,16.41
2023-03-23T13:14:46.373Z,16.30
2023-03-23T13:17:22.235Z,16.32
2023-03-23T13:19:51.698Z,16.38
2023-03-23T13:22:25.650Z,16.30
2023-03-23T13:25:00.869Z,16.34
2023-03-23T13:27:29.654Z,16.38
2023-03-23T13:29:59.208Z,16.41
2023-03-23T13:32:43.769Z,16.42
2023-03-23T13:35:16.864Z,16.48
2023-03-23T13:37:48.869Z,16.50
2023-03-23T13:40:27.243Z,16.53
2023-03-23T13:42:57.235Z,16.44
2023-03-23T13:45:36.763Z,16.44
2023-03-23T13:48:25.355Z,16.41
2023-03-23T13:50:57.782Z,16.40
2023-03-23T13:53:33.566Z,16.40
2023-03-23T13:56:17.613Z,16.37
2023-03-23T13:59:36.898Z,16.32
2023-03-23T14:02:28.137Z,16.26
2023-03-23T14:04:56.271Z,16.15
2023-03-23T14:07:25.418Z,16.20
2023-03-23T14:09:52.658Z,16.07
2023-03-23T14:12:23.053Z,16.06
2023-03-23T14:15:02.491Z,16.09
2023-03-23T14:17:31.571Z,16.15
2023-03-23T14:20:00.282Z,16.16
2023-03-23T14:22:29.470Z,16.18
2023-03-23T14:25:10.857Z,16.16
2023-03-23T14:27:37.802Z,16.25
2023-03-23T14:30:08.159Z,16.20
2023-03-23T14:32:35.710Z,16.17
2023-03-23T14:35:09.711Z,16.28
2023-03-23T14:37:37.928Z,16.28
2023-03-23T14:42:45.657Z,16.40
2023-03-23T14:48:00.582Z,16.50
2023-03-23T14:50:57.153Z,16.55
2023-03-23T14:53:32.453Z,16.58
2023-03-23T14:56:04.820Z,16.55
2023-03-23T14:58:32.555Z,16.53
2023-03-23T15:01:14.383Z,16.49
2023-03-23T15:03:44.525Z,16.60
2023-03-23T15:06:16.338Z,16.66
2023-03-23T15:08:44.458Z,16.63
2023-03-23T15:11:16.807Z,16.67
2023-03-23T15:13:48.415Z,16.70
2023-03-23T15:16:20.994Z,16.82
2023-03-23T15:18:56.226Z,16.88
2023-03-23T15:21:30.699Z,16.91
2023-03-23T15:23:58.651Z,16.94
2023-03-23T15:26:31.442Z,16.98
2023-03-23T15:29:27.294Z,16.97
2023-03-23T15:31:56.386Z,16.98
2023-03-23T15:34:33.751Z,16.99
2023-03-23T15:37:14.941Z,16.97
2023-03-23T15:39:46.803Z,16.99
2023-03-23T15:42:26.370Z,16.99
2023-03-23T15:45:11.712Z,17.00
2023-03-23T15:47:44.239Z,17.01
2023-03-23T15:50:33.712Z,16.98
2023-03-23T15:53:01.277Z,17.00
2023-03-23T15:55:29.592Z,16.97
2023-03-23T15:57:58.872Z,16.99
2023-03-23T16:00:28.725Z,17.00
2023-03-23T16:03:05.508Z,17.02
2023-03-23T16:05:33.724Z,17.07
2023-03-23T16:08:01.101Z,16.98
2023-03-23T16:10:29.083Z,16.96
2023-03-23T16:12:56.083Z,16.95
2023-03-23T16:15:23.068Z,16.99
2023-03-23T16:20:30.131Z,16.91
2023-03-23T16:22:56.852Z,16.91
2023-03-23T16:25:24.313Z,16.90
2023-03-23T16:27:52.628Z,16.89
2023-03-23T16:30:27.934Z,16.86
2023-03-23T16:32:57.064Z,16.82
2023-03-23T16:35:24.591Z,16.81
2023-03-23T16:38:07.094Z,16.82
2023-03-23T16:40:35.795Z,16.75
2023-03-23T16:43:02.471Z,16.75
2023-03-23T16:45:43.248Z,16.74
2023-03-23T16:48:12.019Z,16.74
2023-03-23T16:50:39.143Z,16.69
2023-03-23T16:53:08.389Z,16.64
2023-03-23T16:55:36.788Z,16.60
2023-03-23T17:00:34.080Z,16.57
2023-03-23T17:03:00.824Z,16.59
2023-03-23T17:05:29.449Z,16.59
2023-03-23T17:07:56.709Z,16.58
2023-03-23T17:10:27.371Z,16.57
2023-03-23T17:12:55.506Z,16.55
2023-03-23T17:15:24.491Z,16.55
2023-03-23T17:17:51.494Z,16.52
2023-03-23T17:20:18.333Z,16.54
2023-03-23T17:22:45.055Z,16.48
2023-03-23T17:25:11.787Z,16.49
2023-03-23T17:27:38.900Z,16.45
2023-03-23T17:30:07.627Z,16.42
2023-03-23T17:32:34.821Z,16.47
2023-03-23T17:35:01.915Z,16.42
2023-03-23T17:37:28.600Z,16.42
2023-03-23T17:39:55.229Z,16.42
2023-03-23T17:42:22.002Z,16.40
2023-03-23T17:44:48.611Z,16.40
2023-03-23T17:47:15.251Z,16.40
2023-03-23T17:49:41.996Z,16.40
2023-03-23T17:52:08.641Z,16.42
2023-03-23T17:54:35.320Z,16.44
2023-03-23T17:57:04.109Z,16.42
2023-03-23T17:59:31.692Z,16.41
2023-03-23T18:04:29.873Z,16.35
2023-03-23T18:06:57.627Z,16.30
2023-03-23T18:09:25.357Z,16.26
2023-03-23T18:11:53.194Z,16.23
2023-03-23T18:16:53.380Z,16.27
2023-03-23T18:19:20.435Z,16.24
2023-03-23T18:21:47.114Z,16.25
2023-03-23T18:24:14.128Z,16.20
2023-03-23T18:26:42.523Z,16.19
2023-03-23T18:29:09.301Z,16.18
2023-03-23T18:31:40.266Z,16.20
2023-03-23T18:34:07.546Z,16.19
2023-03-23T18:36:34.793Z,16.20
2023-03-23T18:41:34.581Z,16.20
2023-03-23T18:44:01.169Z,16.24
2023-03-23T18:46:27.976Z,16.20
2023-03-23T18:48:54.751Z,16.21
2023-03-23T18:51:21.503Z,16.22
2023-03-23T18:53:48.133Z,16.19
2023-03-23T18:56:17.494Z,16.15
2023-03-23T18:58:44.958Z,16.18
2023-03-23T19:01:15.831Z,16.14
2023-03-23T19:03:43.108Z,16.16
2023-03-23T19:06:19.750Z,16.19
2023-03-23T19:08:48.071Z,16.19
2023-03-23T19:11:15.913Z,16.15
2023-03-23T19:13:58.435Z,16.17
2023-03-23T19:16:28.301Z,16.13
2023-03-23T19:18:55.067Z,16.20
2023-03-23T19:21:25.529Z,16.17
2023-03-23T19:23:54.142Z,16.13
2023-03-23T19:26:24.406Z,16.15
2023-03-23T19:34:01.319Z,16.12
2023-03-23T19:36:28.111Z,16.08
2023-03-23T19:38:54.997Z,16.12
2023-03-23T19:41:22.299Z,16.08
2023-03-23T19:43:49.173Z,16.12
2023-03-23T19:46:16.455Z,16.15
2023-03-23T19:48:43.752Z,16.13
2023-03-23T19:51:12.434Z,16.09
2023-03-23T19:53:39.885Z,16.10
2023-03-23T19:56:16.612Z,16.10
2023-03-23T19:58:43.494Z,16.17
2023-03-23T20:01:10.580Z,16.14
2023-03-23T20:03:37.377Z,16.10
2023-03-23T20:06:08.413Z,16.10
2023-03-23T20:08:35.379Z,16.09
2023-03-23T20:11:07.077Z,16.13
2023-03-23T20:16:09.054Z,16.06
2023-03-23T20:21:07.595Z,16.07
2023-03-23T20:23:35.590Z,16.01
2023-03-23T20:28:45.799Z,16.04
2023-03-23T20:31:23.302Z,16.02
2023-03-23T20:34:00.260Z,16.05
2023-03-23T20:36:42.566Z,16.07
2023-03-23T20:39:21.654Z,16.03
2023-03-23T20:41:50.683Z,16.03
2023-03-23T20:44:19.187Z,16.02
2023-03-23T20:46:47.661Z,16.07
2023-03-23T20:49:16.048Z,16.07
2023-03-23T20:51:44.993Z,16.05
2023-03-23T20:54:14.241Z,16.08
2023-03-23T20:56:41.142Z,16.06
2023-03-23T20:59:08.664Z,16.04
2023-03-23T21:01:35.941Z,15.98
2023-03-23T21:04:03.401Z,16.00
2023-03-23T21:06:31.218Z,15.96
2023-03-23T21:08:58.352Z,15.97
2023-03-23T21:11:27.051Z,15.93
2023-03-23T21:13:54.092Z,15.91
2023-03-23T21:18:58.453Z,15.83
2023-03-23T21:21:27.403Z,15.88
2023-03-23T21:23:54.432Z,15.95
2023-03-23T21:26:23.688Z,15.90
2023-03-23T21:28:54.147Z,15.94
2023-03-23T21:31:23.587Z,15.86
2023-03-23T21:33:50.664Z,15.87
2023-03-23T21:36:17.316Z,15.85
2023-03-23T21:38:44.845Z,15.83
2023-03-23T21:41:14.160Z,15.74
2023-03-23T21:43:41.383Z,15.71
2023-03-23T21:46:09.673Z,15.62
2023-03-23T21:48:41.671Z,15.58
2023-03-23T21:51:12.384Z,15.60
2023-03-23T21:53:39.645Z,15.60
2023-03-23T21:56:08.069Z,15.57
2023-03-23T22:01:08.444Z,15.66
2023-03-23T22:03:36.286Z,15.78
2023-03-23T22:06:09.824Z,15.82
2023-03-23T22:08:38.536Z,15.61
2023-03-23T22:11:08.820Z,15.59
2023-03-23T22:13:37.315Z,15.51
2023-03-23T22:16:07.100Z,15.58
2023-03-23T22:18:34.960Z,15.53
2023-03-23T22:21:01.662Z,15.53
2023-03-23T22:23:28.325Z,15.57
2023-03-23T22:25:56.018Z,15.48
2023-03-23T22:31:07.076Z,15.49
2023-03-23T22:33:35.211Z,15.54
2023-03-23T22:36:06.830Z,15.49
2023-03-23T22:38:34.985Z,15.55
2023-03-23T22:41:07.188Z,15.56
2023-03-23T22:43:35.598Z,15.56
2023-03-23T22:46:02.610Z,15.57
2023-03-23T22:48:29.339Z,15.46
2023-03-23T22:50:56.088Z,15.42
2023-03-23T22:53:22.906Z,15.42
2023-03-23T22:55:52.941Z,15.47
2023-03-23T22:58:19.728Z,15.49
2023-03-23T23:00:49.832Z,15.55
2023-03-23T23:03:17.490Z,15.52
2023-03-23T23:05:50.176Z,15.51
2023-03-23T23:08:18.214Z,15.46
2023-03-23T23:10:47.638Z,15.51
2023-03-23T23:13:15.241Z,15.51
2023-03-23T23:18:23.441Z,15.38
2023-03-23T23:20:52.907Z,15.42
2023-03-23T23:25:53.368Z,15.37
2023-03-23T23:28:21.577Z,15.37
2023-03-23T23:30:49.159Z,15.23
2023-03-23T23:33:16.292Z,15.24
2023-03-23T23:35:42.988Z,15.27
2023-03-23T23:38:12.775Z,15.18
2023-03-23T23:40:41.562Z,15.14
2023-03-23T23:43:10.522Z,15.14
2023-03-23T23:45:37.604Z,15.17
2023-03-23T23:48:05.620Z,15.27
2023-03-23T23:50:32.518Z,15.21
2023-03-23T23:52:59.231Z,15.07
2023-03-23T23:55:27.138Z,14.98
2023-03-23T23:57:54.106Z,14.92
